Kaministiqua — CFN4612 — position and weather

sailwx.info

Track history (hours):
 
Tides and Currents Weather Stations Pressure Air Temp Water Temp Dewpoint Dewpoint Depression Visibility Wind Speed Wind Dir Waves Ship Positions

Kaministiqua

Last reported at 2014-Aug-21 11:33 UTC. Time now 2014-Aug-21 12:13 UTC.
Position N 45°24' W 073°34'.

Length 223 m; draft 8 m.

Type: Cargo ship. MMSI: 316009457.

Date/timePositionNaut miles runAvg speedWind from/ knotsBaromVisibWave heightAir tempDewpointWater temp
2014-Aug-21 11:33N 45°24' W 073°34'2 1.6
2014-Aug-21 10:33N 45°25' W 073°32'5 5.1
2014-Aug-21 09:33N 45°30' W 073°31'1 0.8
2014-Aug-21 08:33N 45°30' W 073°31'3 3.3
2014-Aug-21 07:33N 45°34' W 073°31'6 6.3
2014-Aug-21 06:33N 45°40' W 073°28'9 9.3
2014-Aug-21 05:33N 45°47' W 073°21'10 9.6
2014-Aug-21 04:33N 45°55' W 073°13'9 8.6
2014-Aug-21 03:33N 46°03' W 073°07'0 0.2
2014-Aug-21 02:33N 46°03' W 073°07'0 0.0
2014-Aug-21 01:33N 46°03' W 073°07'0 0.0
2014-Aug-21 00:33N 46°03' W 073°07'0 0.0
2014-Aug-20 23:33N 46°03' W 073°07'0 0.0
2014-Aug-20 22:33N 46°03' W 073°07'0 0.0
2014-Aug-20 21:33N 46°03' W 073°07'0 0.0
2014-Aug-20 20:33N 46°03' W 073°07'0 0.0
2014-Aug-20 19:33N 46°03' W 073°07'0 0.0
2014-Aug-20 18:33N 46°03' W 073°07'0 0.0
2014-Aug-20 17:33N 46°03' W 073°07'0 0.0
2014-Aug-20 16:32N 46°03' W 073°07'0 0.0
2014-Aug-20 15:33N 46°03' W 073°07'0 0.0
2014-Aug-20 14:33N 46°03' W 073°07'0 0.0
2014-Aug-20 13:33N 46°03' W 073°07'0 0.0
2014-Aug-20 12:33N 46°03' W 073°07'0 0.0
2014-Aug-20 11:33N 46°03' W 073°07'0 0.0
2014-Aug-20 10:33N 46°03' W 073°07'0 0.0
2014-Aug-20 09:33N 46°03' W 073°07'0 0.0
2014-Aug-20 08:33N 46°03' W 073°07'0 0.0
2014-Aug-20 07:33N 46°03' W 073°07'0 0.0
2014-Aug-20 06:33N 46°03' W 073°07'0 0.0
2014-Aug-20 05:33N 46°03' W 073°07'0 0.0
2014-Aug-20 04:33N 46°03' W 073°07'0 0.0
2014-Aug-20 03:33N 46°03' W 073°07'0 0.0
2014-Aug-20 02:33N 46°03' W 073°07'0 0.0
2014-Aug-20 01:33N 46°03' W 073°07'0 0.0
2014-Aug-20 00:33N 46°03' W 073°07'0 0.0
2014-Aug-19 23:33N 46°03' W 073°07'0 0.0
2014-Aug-19 22:33N 46°03' W 073°07'0 0.0
2014-Aug-19 21:33N 46°03' W 073°07'0 0.0
2014-Aug-19 20:33N 46°03' W 073°07'0 0.0
2014-Aug-19 19:33N 46°03' W 073°07'0 0.0
2014-Aug-19 18:33N 46°03' W 073°07'0 0.0
2014-Aug-19 17:33N 46°03' W 073°07'0 0.0
2014-Aug-19 16:33N 46°03' W 073°07'0 0.0
2014-Aug-19 15:33N 46°03' W 073°07'0 0.0
2014-Aug-19 14:33N 46°03' W 073°07'0 0.0
2014-Aug-19 13:33N 46°03' W 073°07'0 0.0
2014-Aug-19 12:33N 46°03' W 073°07'0 0.0
2014-Aug-19 11:33N 46°03' W 073°07'0 0.0
2014-Aug-19 10:33N 46°03' W 073°07'0 0.0
2014-Aug-19 09:33N 46°03' W 073°07'0 0.0
2014-Aug-19 08:33N 46°03' W 073°07'0 0.0
2014-Aug-19 07:33N 46°03' W 073°07'0 0.0
2014-Aug-19 06:33N 46°03' W 073°07'0 0.0
2014-Aug-19 05:33N 46°03' W 073°07'0 0.0
2014-Aug-19 04:33N 46°03' W 073°07'0 0.0
2014-Aug-19 03:33N 46°03' W 073°07'0 0.0
2014-Aug-19 02:33N 46°03' W 073°07'0 0.0
2014-Aug-19 01:33N 46°03' W 073°07'0 0.0
2014-Aug-19 00:33N 46°03' W 073°07'0 0.0
2014-Aug-18 23:33N 46°03' W 073°07'0 0.0
2014-Aug-18 22:33N 46°03' W 073°07'0 0.0
2014-Aug-18 21:33N 46°03' W 073°07'0 0.0
2014-Aug-18 20:33N 46°03' W 073°07'0 0.0
2014-Aug-18 19:33N 46°03' W 073°07'0 0.0
2014-Aug-18 18:33N 46°03' W 073°07'0 0.0
2014-Aug-18 17:33N 46°03' W 073°07'0 0.4
2014-Aug-18 16:34N 46°03' W 073°07'9 9.0
2014-Aug-18 15:33N 45°55' W 073°13'1312.7
2014-Aug-18 14:33N 45°45' W 073°24'1211.9
2014-Aug-18 13:33N 45°34' W 073°31'4 4.4
2014-Aug-18 12:33N 45°30' W 073°31'2 2.5
2014-Aug-18 11:33N 45°27' W 073°30'4 3.9
2014-Aug-18 10:33N 45°24' W 073°34'2 2.0
2014-Aug-18 09:33N 45°24' W 073°37'7 7.2
2014-Aug-18 08:33N 45°24' W 073°47'8 7.7
2014-Aug-18 07:33N 45°19' W 073°55'1 0.9
2014-Aug-18 06:33N 45°18' W 073°56'3 3.1
2014-Aug-18 05:33N 45°15' W 073°58'8 7.8
2014-Aug-18 04:33N 45°14' W 074°09'1111.3
2014-Aug-18 03:33N 45°09' W 074°23'1010.4
2014-Aug-18 02:33N 45°03' W 074°35'9 8.8
2014-Aug-18 01:33N 44°59' W 074°46'2 1.5
2014-Aug-18 00:32N 44°59' W 074°48'42 7.0
2014-Aug-17 18:33N 44°37' W 075°38'1110.9
2014-Aug-17 17:33N 44°28' W 075°48'1110.9
2014-Aug-17 16:33N 44°19' W 075°57'1010.5
2014-Aug-17 15:33N 44°14' W 076°09'1111.2
2014-Aug-17 14:33N 44°07' W 076°22'1212.0
2014-Aug-17 13:33N 43°57' W 076°31'9711.8
2014-Aug-17 05:20N 43°26' W 078°38'1012.4
2014-Aug-17 04:33N 43°23' W 078°51'  
Track history (hours):
 
Tides and Currents Weather Stations Pressure Air Temp Water Temp Dewpoint Dewpoint Depression Visibility Wind Speed Wind Dir Waves Ship Positions

Kaministiqua

Last reported at 2014-Aug-21 11:33 UTC. Time now 2014-Aug-21 12:13 UTC.
Position N 45°24' W 073°34'.

Length 223 m; draft 8 m.

Type: Cargo ship. MMSI: 316009457.

Date/timePositionNaut miles runAvg speedWind from/ knotsBaromVisibWave heightAir tempDewpointWater temp
2014-Aug-21 11:33N 45°24' W 073°34'2 1.6
2014-Aug-21 10:33N 45°25' W 073°32'5 5.1
2014-Aug-21 09:33N 45°30' W 073°31'1 0.8
2014-Aug-21 08:33N 45°30' W 073°31'3 3.3
2014-Aug-21 07:33N 45°34' W 073°31'6 6.3
2014-Aug-21 06:33N 45°40' W 073°28'9 9.3
2014-Aug-21 05:33N 45°47' W 073°21'10 9.6
2014-Aug-21 04:33N 45°55' W 073°13'9 8.6
2014-Aug-21 03:33N 46°03' W 073°07'0 0.2
2014-Aug-21 02:33N 46°03' W 073°07'0 0.0
2014-Aug-21 01:33N 46°03' W 073°07'0 0.0
2014-Aug-21 00:33N 46°03' W 073°07'0 0.0
2014-Aug-20 23:33N 46°03' W 073°07'0 0.0
2014-Aug-20 22:33N 46°03' W 073°07'0 0.0
2014-Aug-20 21:33N 46°03' W 073°07'0 0.0
2014-Aug-20 20:33N 46°03' W 073°07'0 0.0
2014-Aug-20 19:33N 46°03' W 073°07'0 0.0
2014-Aug-20 18:33N 46°03' W 073°07'0 0.0
2014-Aug-20 17:33N 46°03' W 073°07'0 0.0
2014-Aug-20 16:32N 46°03' W 073°07'0 0.0
2014-Aug-20 15:33N 46°03' W 073°07'0 0.0
2014-Aug-20 14:33N 46°03' W 073°07'0 0.0
2014-Aug-20 13:33N 46°03' W 073°07'0 0.0
2014-Aug-20 12:33N 46°03' W 073°07'0 0.0
2014-Aug-20 11:33N 46°03' W 073°07'0 0.0
2014-Aug-20 10:33N 46°03' W 073°07'0 0.0
2014-Aug-20 09:33N 46°03' W 073°07'0 0.0
2014-Aug-20 08:33N 46°03' W 073°07'0 0.0
2014-Aug-20 07:33N 46°03' W 073°07'0 0.0
2014-Aug-20 06:33N 46°03' W 073°07'0 0.0
2014-Aug-20 05:33N 46°03' W 073°07'0 0.0
2014-Aug-20 04:33N 46°03' W 073°07'0 0.0
2014-Aug-20 03:33N 46°03' W 073°07'0 0.0
2014-Aug-20 02:33N 46°03' W 073°07'0 0.0
2014-Aug-20 01:33N 46°03' W 073°07'0 0.0
2014-Aug-20 00:33N 46°03' W 073°07'0 0.0
2014-Aug-19 23:33N 46°03' W 073°07'0 0.0
2014-Aug-19 22:33N 46°03' W 073°07'0 0.0
2014-Aug-19 21:33N 46°03' W 073°07'0 0.0
2014-Aug-19 20:33N 46°03' W 073°07'0 0.0
2014-Aug-19 19:33N 46°03' W 073°07'0 0.0
2014-Aug-19 18:33N 46°03' W 073°07'0 0.0
2014-Aug-19 17:33N 46°03' W 073°07'0 0.0
2014-Aug-19 16:33N 46°03' W 073°07'0 0.0
2014-Aug-19 15:33N 46°03' W 073°07'0 0.0
2014-Aug-19 14:33N 46°03' W 073°07'0 0.0
2014-Aug-19 13:33N 46°03' W 073°07'0 0.0
2014-Aug-19 12:33N 46°03' W 073°07'0 0.0
2014-Aug-19 11:33N 46°03' W 073°07'0 0.0
2014-Aug-19 10:33N 46°03' W 073°07'0 0.0
2014-Aug-19 09:33N 46°03' W 073°07'0 0.0
2014-Aug-19 08:33N 46°03' W 073°07'0 0.0
2014-Aug-19 07:33N 46°03' W 073°07'0 0.0
2014-Aug-19 06:33N 46°03' W 073°07'0 0.0
2014-Aug-19 05:33N 46°03' W 073°07'0 0.0
2014-Aug-19 04:33N 46°03' W 073°07'0 0.0
2014-Aug-19 03:33N 46°03' W 073°07'0 0.0
2014-Aug-19 02:33N 46°03' W 073°07'0 0.0
2014-Aug-19 01:33N 46°03' W 073°07'0 0.0
2014-Aug-19 00:33N 46°03' W 073°07'0 0.0
2014-Aug-18 23:33N 46°03' W 073°07'0 0.0
2014-Aug-18 22:33N 46°03' W 073°07'0 0.0
2014-Aug-18 21:33N 46°03' W 073°07'0 0.0
2014-Aug-18 20:33N 46°03' W 073°07'0 0.0
2014-Aug-18 19:33N 46°03' W 073°07'0 0.0
2014-Aug-18 18:33N 46°03' W 073°07'0 0.0
2014-Aug-18 17:33N 46°03' W 073°07'0 0.4
2014-Aug-18 16:34N 46°03' W 073°07'9 9.0
2014-Aug-18 15:33N 45°55' W 073°13'1312.7
2014-Aug-18 14:33N 45°45' W 073°24'1211.9
2014-Aug-18 13:33N 45°34' W 073°31'4 4.4
2014-Aug-18 12:33N 45°30' W 073°31'2 2.5
2014-Aug-18 11:33N 45°27' W 073°30'4 3.9
2014-Aug-18 10:33N 45°24' W 073°34'2 2.0
2014-Aug-18 09:33N 45°24' W 073°37'7 7.2
2014-Aug-18 08:33N 45°24' W 073°47'8 7.7
2014-Aug-18 07:33N 45°19' W 073°55'1 0.9
2014-Aug-18 06:33N 45°18' W 073°56'3 3.1
2014-Aug-18 05:33N 45°15' W 073°58'8 7.8
2014-Aug-18 04:33N 45°14' W 074°09'1111.3
2014-Aug-18 03:33N 45°09' W 074°23'1010.4
2014-Aug-18 02:33N 45°03' W 074°35'9 8.8
2014-Aug-18 01:33N 44°59' W 074°46'2 1.5
2014-Aug-18 00:32N 44°59' W 074°48'42 7.0
2014-Aug-17 18:33N 44°37' W 075°38'1110.9
2014-Aug-17 17:33N 44°28' W 075°48'1110.9
2014-Aug-17 16:33N 44°19' W 075°57'1010.5
2014-Aug-17 15:33N 44°14' W 076°09'1111.2
2014-Aug-17 14:33N 44°07' W 076°22'1212.0
2014-Aug-17 13:33N 43°57' W 076°31'9711.8
2014-Aug-17 05:20N 43°26' W 078°38'1012.4
2014-Aug-17 04:33N 43°23' W 078°51'  

Dump ship's entire track history